Flight Track Log - Related Links

Times and Time Zones

All times are in EST time to prevent confusion due to time zone crossing. See the UAL33 flight status page for this flight to view local times or setup timezone preferences in your user account.

Time Position Orientation Groundspeed Altitude Reporting Facility
EST Latitude Longitude Course Direction KTS MPH feet Rate Location/Type
Thu 04:41:00 AM 36.0099 140.8208 55° Northeast  Level FlightAware Approximate
Thu 04:42:00 AM 36.0913 140.9663 55° Northeast  Level FlightAware Approximate
Thu 04:43:00 AM 36.1725 141.1120 55° Northeast  Level FlightAware Approximate
Thu 04:44:00 AM 36.2536 141.2580 55° Northeast  Level FlightAware Approximate
Thu 04:45:00 AM 36.3344 141.4043 56° Northeast  Level FlightAware Approximate
Thu 04:46:00 AM 36.4151 141.5509 56° Northeast  Level FlightAware Approximate
Thu 04:47:00 AM 36.4956 141.6979 56° Northeast  Level FlightAware Approximate
Thu 04:48:00 AM 36.5759 141.8451 56° Northeast  Level FlightAware Approximate
Thu 04:49:00 AM 36.6560 141.9927 56° Northeast  Level FlightAware Approximate
Thu 04:50:00 AM 36.7360 142.1405 56° Northeast  Level FlightAware Approximate
Thu 04:51:00 AM 36.8158 142.2887 56° Northeast  Level FlightAware Approximate
Thu 04:52:00 AM 36.8953 142.4371 56° Northeast  Level FlightAware Approximate
Thu 04:53:00 AM 36.9747 142.5859 56° Northeast  Level FlightAware Approximate
Thu 04:54:00 AM 37.0540 142.7350 56° Northeast  Level FlightAware Approximate
Thu 04:55:00 AM 37.1307 142.8862 57° Northeast  Level Estimated
Thu 04:56:00 AM 37.2096 143.0359 56° Northeast  Level FlightAware Approximate
Thu 04:57:00 AM 37.2883 143.1859 57° Northeast  Level FlightAware Approximate
Thu 04:58:00 AM 37.3668 143.3362 57° Northeast  Level FlightAware Approximate
Thu 04:59:00 AM 37.4451 143.4868 57° Northeast  Level FlightAware Approximate
Thu 05:00:00 AM 37.5232 143.6377 57° Northeast  Level FlightAware Approximate
Thu 05:01:00 AM 37.6012 143.7890 57° Northeast  Level FlightAware Approximate
Thu 05:02:00 AM 37.6789 143.9405 57° Northeast  Level FlightAware Approximate
Thu 05:03:00 AM 37.7564 144.0924 57° Northeast  Level FlightAware Approximate
Thu 05:04:00 AM 37.8338 144.2446 57° Northeast  Level FlightAware Approximate
Thu 05:05:00 AM 37.9109 144.3971 57° Northeast  Level FlightAware Approximate
Thu 05:06:00 AM 37.9879 144.5500 57° Northeast  Level FlightAware Approximate
Thu 05:07:00 AM 38.0646 144.7031 57° Northeast  Level FlightAware Approximate
Thu 05:08:00 AM 38.1412 144.8566 58° Northeast  Level FlightAware Approximate
Thu 05:09:00 AM 38.2175 145.0104 58° Northeast  Level FlightAware Approximate
Thu 05:10:00 AM 38.2937 145.1645 58° Northeast  Level FlightAware Approximate
Thu 05:11:00 AM 38.3696 145.3190 58° Northeast  Level FlightAware Approximate
Thu 05:12:00 AM 38.4454 145.4737 58° Northeast  Level FlightAware Approximate
Thu 05:13:00 AM 38.5209 145.6288 58° Northeast  Level FlightAware Approximate
Thu 05:14:00 AM 38.5963 145.7842 58° Northeast  Level FlightAware Approximate
Thu 05:15:00 AM 38.6714 145.9400 58° Northeast  Level FlightAware Approximate
Thu 05:16:00 AM 38.7463 146.0960 58° Northeast  Level FlightAware Approximate
Thu 05:17:00 AM 38.8210 146.2524 58° Northeast  Level FlightAware Approximate
Thu 05:18:00 AM 38.8964 146.4109 59° Northeast  Level FlightAware Approximate
Thu 05:19:00 AM 38.9715 146.5697 59° Northeast  Level FlightAware Approximate
Thu 05:20:00 AM 39.0464 146.7288 59° Northeast  Level FlightAware Approximate
Thu 05:21:00 AM 39.1210 146.8882 59° Northeast  Level FlightAware Approximate
Thu 05:22:00 AM 39.1955 147.0480 59° Northeast  Level FlightAware Approximate
Thu 05:23:00 AM 39.2697 147.2081 59° Northeast  Level FlightAware Approximate
Thu 05:24:00 AM 39.3438 147.3686 59° Northeast  Level FlightAware Approximate
Thu 05:25:00 AM 39.4175 147.5294 59° Northeast  Level FlightAware Approximate
Thu 05:26:00 AM 39.4911 147.6905 59° Northeast  Level FlightAware Approximate
Thu 05:27:00 AM 39.5645 147.8520 59° Northeast  Level FlightAware Approximate
Thu 05:28:00 AM 39.6376 148.0138 60° Northeast  Level FlightAware Approximate
Thu 05:29:00 AM 39.7105 148.1760 60° Northeast  Level FlightAware Approximate
Thu 05:30:00 AM 39.7832 148.3385 60° Northeast  Level FlightAware Approximate
Thu 05:31:00 AM 39.8556 148.5014 60° Northeast  Level FlightAware Approximate
Thu 05:32:00 AM 39.9279 148.6646 60° Northeast  Level FlightAware Approximate
Thu 05:33:00 AM 39.9999 148.8281 60° Northeast  Level FlightAware Approximate
Thu 05:34:00 AM 40.0716 148.9920 60° Northeast  Level FlightAware Approximate
Thu 05:35:00 AM 40.1431 149.1562 60° Northeast  Level FlightAware Approximate
Thu 05:36:00 AM 40.2144 149.3208 60° Northeast  Level FlightAware Approximate
Thu 05:37:00 AM 40.2855 149.4857 60° Northeast  Level FlightAware Approximate
Thu 05:38:00 AM 40.3563 149.6510 61° Northeast  Level FlightAware Approximate
Thu 05:39:00 AM 40.4269 149.8166 61° Northeast  Level FlightAware Approximate
Thu 05:40:00 AM 40.4973 149.9826 61° Northeast  Level FlightAware Approximate
Thu 05:41:00 AM 40.5674 150.1489 61° Northeast  Level FlightAware Approximate
Thu 05:42:00 AM 40.6373 150.3156 61° Northeast  Level FlightAware Approximate
Thu 05:43:00 AM 40.7069 150.4826 61° Northeast  Level FlightAware Approximate
Thu 05:44:00 AM 40.7763 150.6499 61° Northeast  Level FlightAware Approximate
Thu 05:45:00 AM 40.8455 150.8176 61° Northeast  Level FlightAware Approximate
Thu 05:46:00 AM 40.9144 150.9857 61° Northeast  Level FlightAware Approximate
Thu 05:47:00 AM 40.9831 151.1541 62° Northeast  Level FlightAware Approximate
Thu 05:48:00 AM 41.0515 151.3229 62° Northeast  Level FlightAware Approximate
Thu 05:49:00 AM 41.1197 151.4920 62° Northeast  Level FlightAware Approximate
Thu 05:50:00 AM 41.1876 151.6614 62° Northeast  Level FlightAware Approximate
Thu 05:51:00 AM 41.2553 151.8312 62° Northeast  Level FlightAware Approximate
Thu 05:52:00 AM 41.3227 152.0014 62° Northeast  Level FlightAware Approximate
Thu 05:53:00 AM 41.3899 152.1719 62° Northeast  Level FlightAware Approximate
Thu 05:54:00 AM 41.4568 152.3428 62° Northeast  Level FlightAware Approximate
Thu 05:55:00 AM 41.5235 152.5140 62° Northeast  Level FlightAware Approximate
Thu 05:56:00 AM 41.5899 152.6856 63° Northeast  Level FlightAware Approximate
Thu 05:57:00 AM 41.6561 152.8575 63° Northeast  Level FlightAware Approximate
Thu 05:58:00 AM 41.7220 153.0298 63° Northeast  Level FlightAware Approximate
Thu 05:59:00 AM 41.7876 153.2024 63° Northeast  Level FlightAware Approximate
Thu 06:00:00 AM 41.8530 153.3754 63° Northeast  Level FlightAware Approximate
Thu 06:01:00 AM 41.9182 153.5487 63° Northeast  Level FlightAware Approximate
Thu 06:02:00 AM 41.9830 153.7224 63° Northeast  Level FlightAware Approximate
Thu 06:03:00 AM 42.0476 153.8965 63° Northeast  Level FlightAware Approximate
Thu 06:04:00 AM 42.1120 154.0708 64° Northeast  Level FlightAware Approximate
Thu 06:05:00 AM 42.1761 154.2456 64° Northeast  Level FlightAware Approximate
Thu 06:06:00 AM 42.2399 154.4207 64° Northeast  Level FlightAware Approximate
Thu 06:07:00 AM 42.3034 154.5962 64° Northeast  Level FlightAware Approximate
Thu 06:08:00 AM 42.3667 154.7720 64° Northeast  Level FlightAware Approximate
Thu 06:09:00 AM 42.4297 154.9482 64° Northeast  Level FlightAware Approximate
Thu 06:10:00 AM 42.4925 155.1247 64° Northeast  Level FlightAware Approximate
Thu 06:11:00 AM 42.5549 155.3015 64° Northeast  Level FlightAware Approximate
Thu 06:12:00 AM 42.6171 155.4788 64° Northeast  Level FlightAware Approximate
Thu 06:13:00 AM 42.6790 155.6564 65° Northeast  Level FlightAware Approximate
Thu 06:14:00 AM 42.7407 155.8343 65° Northeast  Level FlightAware Approximate
Thu 06:15:00 AM 42.8021 156.0126 65° Northeast  Level FlightAware Approximate
Thu 06:16:00 AM 42.8632 156.1912 65° Northeast  Level FlightAware Approximate
Thu 06:17:00 AM 42.9240 156.3702 65° Northeast  Level FlightAware Approximate
Thu 06:18:00 AM 42.9845 156.5495 65° Northeast  Level FlightAware Approximate
Thu 06:19:00 AM 43.0448 156.7292 65° Northeast  Level FlightAware Approximate
Thu 06:20:00 AM 43.1047 156.9093 65° Northeast  Level FlightAware Approximate
Thu 06:21:00 AM 43.1645 157.0900 66° East  Level FlightAware Approximate
Thu 06:22:00 AM 43.2240 157.2711 66° East  Level FlightAware Approximate
Thu 06:23:00 AM 43.2833 157.4526 66° East  Level FlightAware Approximate
Thu 06:24:00 AM 43.3422 157.6344 66° East  Level FlightAware Approximate
Thu 06:25:00 AM 43.4009 157.8165 66° East  Level FlightAware Approximate
Thu 06:26:00 AM 43.4592 157.9990 66° East  Level FlightAware Approximate
Thu 06:27:00 AM 43.5173 158.1819 66° East  Level FlightAware Approximate
Thu 06:28:00 AM 43.5751 158.3651 66° East  Level FlightAware Approximate
Thu 06:29:00 AM 43.6326 158.5486 67° East  Level FlightAware Approximate
Thu 06:30:00 AM 43.6898 158.7325 67° East  Level FlightAware Approximate
Thu 06:31:00 AM 43.7467 158.9167 67° East  Level FlightAware Approximate
Thu 06:32:00 AM 43.8004 159.1030 67° East  Level Estimated
Thu 06:33:00 AM 43.8569 159.2878 67° East  Level FlightAware Approximate
Thu 06:34:00 AM 43.9130 159.4730 67° East  Level FlightAware Approximate
Thu 06:35:00 AM 43.9689 159.6586 67° East  Level FlightAware Approximate
Thu 06:36:00 AM 44.0244 159.8445 67° East  Level FlightAware Approximate
Thu 06:37:00 AM 44.0797 160.0307 68° East  Level FlightAware Approximate
Thu 06:38:00 AM 44.1347 160.2173 68° East  Level FlightAware Approximate
Thu 06:39:00 AM 44.1893 160.4043 68° East  Level FlightAware Approximate
Thu 06:40:00 AM 44.2438 160.5922 68° East  Level FlightAware Approximate
Thu 06:41:00 AM 44.2981 160.7805 68° East  Level FlightAware Approximate
Thu 06:42:00 AM 44.3520 160.9692 68° East  Level FlightAware Approximate
Thu 06:43:00 AM 44.4056 161.1582 68° East  Level FlightAware Approximate
Thu 06:44:00 AM 44.4589 161.3476 68° East  Level FlightAware Approximate
Thu 06:45:00 AM 44.5119 161.5373 69° East  Level FlightAware Approximate
Thu 06:46:00 AM 44.5645 161.7274 69° East  Level FlightAware Approximate
Thu 06:47:00 AM 44.6169 161.9177 69° East  Level FlightAware Approximate
Thu 06:48:00 AM 44.6689 162.1085 69° East  Level FlightAware Approximate
Thu 06:48:28 AM 37.6167 164.9333 83° East 660 760 39,000  Level Oakland Oceanic (ODAPS)
Thu 06:49:00 AM 44.7206 162.2996 69° East  Level FlightAware Approximate
Thu 06:50:00 AM 44.7720 162.4910 69° East  Level FlightAware Approximate
Thu 06:51:00 AM 44.8231 162.6827 69° East  Level FlightAware Approximate
Thu 06:52:00 AM 44.8739 162.8748 69° East  Level FlightAware Approximate
Thu 06:53:00 AM 44.9243 163.0673 70° East  Level FlightAware Approximate
Thu 06:54:00 AM 37.7427 166.3097 84° East 660 760 39,000  Level FlightAware Transoceanic
Thu 06:55:00 AM 37.7621 166.5396 84° East 660 760 39,000  Level FlightAware Transoceanic
Thu 06:56:00 AM 37.7812 166.7695 84° East 660 760 39,000  Level FlightAware Transoceanic
Thu 06:57:00 AM 37.7997 166.9996 84° East 660 760 39,000  Level FlightAware Transoceanic
Thu 06:58:00 AM 37.8178 167.2298 84° East 660 760 39,000  Level FlightAware Transoceanic
Thu 06:59:00 AM 37.8355 167.4601 85° East 660 760 39,000  Level FlightAware Transoceanic
Thu 07:00:00 AM 37.8527 167.6905 85° East 660 760 39,000  Level FlightAware Transoceanic
Thu 07:01:00 AM 37.8694 167.9210 85° East 660 760 39,000  Level FlightAware Transoceanic
Thu 07:02:00 AM 37.8857 168.1516 85° East 660 760 39,000  Level FlightAware Transoceanic
Thu 07:03:00 AM 37.9016 168.3824 85° East 660 760 39,000  Level FlightAware Transoceanic
Thu 07:04:00 AM 37.9170 168.6132 85° East 660 760 39,000  Level FlightAware Transoceanic
Thu 07:05:00 AM 37.9320 168.8441 85° East 660 760 39,000  Level FlightAware Transoceanic
Thu 07:06:00 AM 37.9465 169.0751 86° East 660 760 39,000  Level FlightAware Transoceanic
Thu 07:07:00 AM 37.9605 169.3062 86° East 660 760 39,000  Level FlightAware Transoceanic
Thu 07:08:00 AM 37.9742 169.5374 86° East 660 760 39,000  Level FlightAware Transoceanic
Thu 07:09:00 AM 37.9873 169.7686 86° East 660 760 39,000  Level FlightAware Transoceanic
Thu 07:10:00 AM 38.0000 170.0000 87° East 660 760 39,000  Level FlightAware Transoceanic
Thu 07:11:00 AM 38.0088 170.2124 87° East 660 760 39,000  Level FlightAware Transoceanic
Thu 07:12:00 AM 38.0173 170.4248 87° East 660 760 39,000  Level FlightAware Transoceanic
Thu 07:12:01 AM 38.0167 170.2333 87° East 613 705 39,000  Level Oakland Oceanic (ODAPS)
Thu 07:13:00 AM 38.0253 170.6373 87° East 660 760 39,000  Level FlightAware Transoceanic
Thu 07:14:00 AM 38.0330 170.8498 87° East 660 760 39,000  Level FlightAware Transoceanic
Thu 07:15:00 AM 38.0403 171.0624 88° East 660 760 39,000  Level FlightAware Transoceanic
Thu 07:16:00 AM 38.0472 171.2750 88° East 660 760 39,000  Level FlightAware Transoceanic
Thu 07:16:12 AM 38.0500 171.2167 88° East 638 734 39,000  Level Oakland Oceanic (ODAPS)
Thu 07:17:00 AM 38.0537 171.4876 88° East 660 760 39,000  Level FlightAware Transoceanic
Thu 07:18:00 AM 38.0612 171.5343 88° East 613 705 39,000  Level FlightAware Transoceanic
Thu 07:19:00 AM 38.0672 171.7513 88° East 613 705 39,000  Level FlightAware Transoceanic
Thu 07:20:00 AM 38.0728 171.9683 88° East 613 705 39,000  Level FlightAware Transoceanic
Thu 07:21:00 AM 38.0780 172.1853 88° East 613 705 39,000  Level FlightAware Transoceanic
Thu 07:22:00 AM 38.0835 172.5016 88° East 638 734 39,000  Level FlightAware Transoceanic
Thu 07:23:00 AM 38.0878 172.7159 89° East 638 734 39,000  Level FlightAware Transoceanic
Thu 07:24:00 AM 38.0916 172.9302 89° East 638 734 39,000  Level FlightAware Transoceanic
Thu 07:25:00 AM 38.0951 173.1445 89° East 638 734 39,000  Level FlightAware Transoceanic
Thu 07:26:00 AM 38.0981 173.3588 89° East 638 734 39,000  Level FlightAware Transoceanic
Thu 07:27:00 AM 38.1008 173.5732 89° East 638 734 39,000  Level FlightAware Transoceanic
Thu 07:28:00 AM 38.1031 173.7875 89° East 638 734 39,000  Level FlightAware Transoceanic
Thu 07:29:00 AM 38.1050 174.0019 89° East 638 734 39,000  Level FlightAware Transoceanic
Thu 07:30:00 AM 38.1065 174.2163 90° East 638 734 39,000  Level FlightAware Transoceanic
Thu 07:30:04 AM 38.1000 174.3167 90° East 633 728 39,000  Level Oakland Oceanic (ODAPS)
Thu 07:31:00 AM 38.1076 174.4307 90° East 638 734 39,000  Level FlightAware Transoceanic
Thu 07:32:00 AM 38.1083 174.6451 90° East 638 734 39,000  Level FlightAware Transoceanic
Thu 07:33:00 AM 38.1087 174.8595 90° East 638 734 39,000  Level FlightAware Transoceanic
Thu 07:34:00 AM 38.1086 175.0739 90° East 638 734 39,000  Level FlightAware Transoceanic
Thu 07:35:00 AM 38.1082 175.2883 90° East 638 734 39,000  Level FlightAware Transoceanic
Thu 07:36:00 AM 38.1012 175.6293 90° East 633 728 39,000  Level FlightAware Transoceanic
Thu 07:37:00 AM 38.1000 175.8480 90° East 633 728 39,000  Level FlightAware Transoceanic
Thu 07:38:00 AM 38.0984 176.0668 91° East 633 728 39,000  Level FlightAware Transoceanic
Thu 07:39:00 AM 38.0964 176.2855 91° East 633 728 39,000  Level FlightAware Transoceanic
Thu 07:40:00 AM 38.0939 176.5042 91° East 633 728 39,000  Level FlightAware Transoceanic
Thu 07:41:00 AM 38.0911 176.7229 91° East 633 728 39,000  Level FlightAware Transoceanic
Thu 07:42:00 AM 38.0879 176.9416 91° East 633 728 39,000  Level FlightAware Transoceanic
Thu 07:43:00 AM 38.0842 177.1603 91° East 633 728 39,000  Level FlightAware Transoceanic
Thu 07:43:56 AM 38.0833 177.3833 92° East 624 718 39,000  Level Oakland Oceanic (ODAPS)
Thu 07:44:00 AM 38.0802 177.3789 91° East 633 728 39,000  Level FlightAware Transoceanic
Thu 07:45:00 AM 38.0757 177.5975 92° East 633 728 39,000  Level FlightAware Transoceanic
Thu 07:46:00 AM 38.0709 177.8161 92° East 633 728 39,000  Level FlightAware Transoceanic
Thu 07:47:00 AM 38.0656 178.0347 92° East 633 728 39,000  Level FlightAware Transoceanic
Thu 07:48:00 AM 38.0599 178.2532 92° East 633 728 39,000  Level FlightAware Transoceanic
Thu 07:49:00 AM 38.0538 178.4717 92° East 633 728 39,000  Level FlightAware Transoceanic
Thu 07:50:00 AM 38.0489 178.6924 92° East 624 718 39,000  Level FlightAware Transoceanic
Thu 07:51:00 AM 38.0418 178.9105 92° East 624 718 39,000  Level FlightAware Transoceanic
Thu 07:52:00 AM 38.0342 179.1285 93° East 624 718 39,000  Level FlightAware Transoceanic
Thu 07:53:00 AM 38.0263 179.3464 93° East 624 718 39,000  Level FlightAware Transoceanic
Thu 07:54:00 AM 38.0179 179.5643 93° East 624 718 39,000  Level FlightAware Transoceanic
Thu 07:55:00 AM 38.0092 179.7822 93° East 624 718 39,000  Level FlightAware Transoceanic
Thu 07:56:00 AM 38.0000 -180.0000 80° East 624 718 39,000  Level FlightAware Transoceanic
Thu 07:56:45 AM 38.0000 180.0000 80° East 591 680 39,000  Level Oakland Oceanic (ODAPS)
Thu 07:57:00 AM 38.0272 -179.8106 80° East 624 718 39,000  Level FlightAware Transoceanic
Thu 07:57:49 AM 38.0500 -179.6167 80° East 580 667 39,000  Level Oakland Oceanic (ODAPS)
Thu 07:58:00 AM 38.0540 -179.6211 80° East 624 718 39,000  Level FlightAware Transoceanic
Thu 07:59:00 AM 38.0806 -179.4315 80° East 624 718 39,000  Level FlightAware Transoceanic
Thu 08:00:00 AM 38.1069 -179.2417 80° East 624 718 39,000  Level FlightAware Transoceanic
Thu 08:01:00 AM 38.1328 -179.0518 80° East 624 718 39,000  Level FlightAware Transoceanic
Thu 08:02:00 AM 38.1585 -178.8618 80° East 624 718 39,000  Level FlightAware Transoceanic
Thu 08:03:00 AM 38.1984 -178.5606 81° East 591 680 39,000  Level FlightAware Transoceanic
Thu 08:04:00 AM 38.2148 -178.4045 81° East 580 667 39,000  Level FlightAware Transoceanic
Thu 08:05:00 AM 38.2410 -178.2019 81° East 580 667 39,000  Level FlightAware Transoceanic
Thu 08:06:00 AM 38.2669 -177.9993 81° East 580 667 39,000  Level FlightAware Transoceanic
Thu 08:07:00 AM 38.2925 -177.7964 81° East 580 667 39,000  Level FlightAware Transoceanic
Thu 08:08:00 AM 38.3177 -177.5934 81° East 580 667 39,000  Level FlightAware Transoceanic
Thu 08:09:00 AM 38.3425 -177.3903 81° East 580 667 39,000  Level FlightAware Transoceanic
Thu 08:10:00 AM 38.3671 -177.1870 81° East 580 667 39,000  Level FlightAware Transoceanic
Thu 08:11:00 AM 38.3912 -176.9836 81° East 580 667 39,000  Level FlightAware Transoceanic
Thu 08:11:41 AM 38.4000 -176.8667 81° East 567 652 39,000  Level Oakland Oceanic (ODAPS)
Thu 08:12:00 AM 38.4150 -176.7801 82° East 580 667 39,000  Level FlightAware Transoceanic
Thu 08:13:00 AM 38.4384 -176.5764 82° East 580 667 39,000  Level FlightAware Transoceanic
Thu 08:14:00 AM 38.4616 -176.3726 82° East 580 667 39,000  Level FlightAware Transoceanic
Thu 08:15:00 AM 38.4843 -176.1687 82° East 580 667 39,000  Level FlightAware Transoceanic
Thu 08:16:00 AM 38.5067 -175.9646 82° East 580 667 39,000  Level FlightAware Transoceanic
Thu 08:17:00 AM 38.5313 -175.6983 82° East 567 652 39,000  Level FlightAware Transoceanic
Thu 08:18:00 AM 38.5520 -175.5031 82° East 567 652 39,000  Level FlightAware Transoceanic
Thu 08:19:00 AM 38.5724 -175.3079 82° East 567 652 39,000  Level FlightAware Transoceanic
Thu 08:20:00 AM 38.5925 -175.1125 83° East 567 652 39,000  Level FlightAware Transoceanic
Thu 08:21:00 AM 38.6123 -174.9171 83° East 567 652 39,000  Level FlightAware Transoceanic
Thu 08:22:00 AM 38.6318 -174.7215 83° East 567 652 39,000  Level FlightAware Transoceanic
Thu 08:23:00 AM 38.6509 -174.5258 83° East 567 652 39,000  Level FlightAware Transoceanic
Thu 08:24:00 AM 38.6697 -174.3300 83° East 567 652 39,000  Level FlightAware Transoceanic
Thu 08:25:00 AM 38.6882 -174.1341 83° East 567 652 39,000  Level FlightAware Transoceanic
Thu 08:25:33 AM 38.6833 -174.1667 83° East 549 632 39,000  Level Oakland Oceanic (ODAPS)
Thu 08:26:00 AM 38.7063 -173.9382 83° East 567 652 39,000  Level FlightAware Transoceanic
Thu 08:27:00 AM 38.7241 -173.7421 83° East 567 652 39,000  Level FlightAware Transoceanic
Thu 08:28:00 AM 38.7416 -173.5459 84° East 567 652 39,000  Level FlightAware Transoceanic
Thu 08:29:00 AM 38.7588 -173.3496 84° East 567 652 39,000  Level FlightAware Transoceanic
Thu 08:30:00 AM 38.7756 -173.1532 84° East 567 652 39,000  Level FlightAware Transoceanic
Thu 08:31:00 AM 38.7844 -173.0341 84° East 549 632 39,000  Level FlightAware Transoceanic
Thu 08:32:00 AM 38.8001 -172.8450 84° East 549 632 39,000  Level FlightAware Transoceanic
Thu 08:33:00 AM 38.8156 -172.6559 84° East 549 632 39,000  Level FlightAware Transoceanic
Thu 08:34:00 AM 38.8308 -172.4667 84° East 549 632 39,000  Level FlightAware Transoceanic
Thu 08:35:00 AM 38.8456 -172.2774 84° East 549 632 39,000  Level FlightAware Transoceanic
Thu 08:36:00 AM 38.8602 -172.0880 84° East 549 632 39,000  Level FlightAware Transoceanic
Thu 08:37:00 AM 38.8744 -171.8985 85° East 549 632 39,000  Level FlightAware Transoceanic
Thu 08:38:00 AM 38.8884 -171.7090 85° East 549 632 39,000  Level FlightAware Transoceanic
Thu 08:39:00 AM 38.9020 -171.5194 85° East 549 632 39,000  Level FlightAware Transoceanic
Thu 08:39:24 AM 38.9000 -171.5167 85° East 534 615 39,000  Level Oakland Oceanic (ODAPS)
Thu 08:40:00 AM 38.9153 -171.3297 85° East 549 632 39,000  Level FlightAware Transoceanic
Thu 08:41:00 AM 38.9283 -171.1399 85° East 549 632 39,000  Level FlightAware Transoceanic
Thu 08:42:00 AM 38.9411 -170.9501 85° East 549 632 39,000  Level FlightAware Transoceanic
Thu 08:43:00 AM 38.9535 -170.7602 85° East 549 632 39,000  Level FlightAware Transoceanic
Thu 08:44:00 AM 38.9656 -170.5703 85° East 549 632 39,000  Level FlightAware Transoceanic
Thu 08:45:00 AM 38.9768 -170.3796 85° East 534 615 39,000  Level FlightAware Transoceanic
Thu 08:46:00 AM 38.9886 -170.1898 86° East 534 615 39,000  Level FlightAware Transoceanic
Thu 08:47:00 AM 39.0000 -170.0000 79° East 534 615 39,000  Level FlightAware Transoceanic
Thu 08:47:27 AM 39.0000 -170.0000 79° East 534 615 39,000  Level Oakland Oceanic (ODAPS)
Thu 08:48:00 AM 39.0253 -169.8243 80° East 534 615 39,000  Level FlightAware Transoceanic
Thu 08:49:00 AM 39.0503 -169.6484 80° East 534 615 39,000  Level FlightAware Transoceanic
Thu 08:50:00 AM 39.0751 -169.4724 80° East 534 615 39,000  Level FlightAware Transoceanic
Thu 08:51:00 AM 39.0996 -169.2963 80° East 534 615 39,000  Level FlightAware Transoceanic
Thu 08:52:00 AM 39.1238 -169.1201 80° East 534 615 39,000  Level FlightAware Transoceanic
Thu 08:53:00 AM 39.1559 -168.8839 80° East 534 615 39,000  Level FlightAware Transoceanic
Thu 08:53:16 AM 39.1500 -168.9167 80° East 526 605 39,000  Level Oakland Oceanic (ODAPS)
Thu 08:54:00 AM 39.1808 -168.6974 80° East 534 615 39,000  Level FlightAware Transoceanic
Thu 08:55:00 AM 39.2055 -168.5107 80° East 534 615 39,000  Level FlightAware Transoceanic
Thu 08:56:00 AM 39.2298 -168.3240 81° East 534 615 39,000  Level FlightAware Transoceanic
Thu 08:57:00 AM 39.2539 -168.1371 81° East 534 615 39,000  Level FlightAware Transoceanic
Thu 08:58:00 AM 39.2776 -167.9500 81° East 534 615 39,000  Level FlightAware Transoceanic
Thu 08:59:00 AM 39.2933 -167.8152 81° East 526 605 39,000  Level FlightAware Transoceanic
Thu 09:00:00 AM 39.3162 -167.6311 81° East 526 605 39,000  Level FlightAware Transoceanic
Thu 09:01:00 AM 39.3387 -167.4470 81° East 526 605 39,000  Level FlightAware Transoceanic
Thu 09:02:00 AM 39.3610 -167.2628 81° East 526 605 39,000  Level FlightAware Transoceanic
Thu 09:03:00 AM 39.3830 -167.0784 81° East 526 605 39,000  Level FlightAware Transoceanic
Thu 09:04:00 AM 39.4047 -166.8939 81° East 526 605 39,000  Level FlightAware Transoceanic
Thu 09:05:00 AM 39.4262 -166.7093 82° East 526 605 39,000  Level FlightAware Transoceanic
Thu 09:06:00 AM 39.4473 -166.5246 82° East 526 605 39,000  Level FlightAware Transoceanic
Thu 09:07:00 AM 39.4681 -166.3398 82° East 526 605 39,000  Level FlightAware Transoceanic
Thu 09:07:10 AM 39.4667 -166.3333 82° East 522 601 39,000  Level Oakland Oceanic (ODAPS)
Thu 09:08:00 AM 39.4887 -166.1548 82° East 526 605 39,000  Level FlightAware Transoceanic
Thu 09:09:00 AM 39.5089 -165.9698 82° East 526 605 39,000  Level FlightAware Transoceanic
Thu 09:10:00 AM 39.5289 -165.7846 82° East 526 605 39,000  Level FlightAware Transoceanic
Thu 09:11:00 AM 39.5485 -165.5994 82° East 526 605 39,000  Level FlightAware Transoceanic
Thu 09:12:00 AM 39.5679 -165.4140 82° East 526 605 39,000  Level FlightAware Transoceanic
Thu 09:13:00 AM 39.5857 -165.2233 82° East 522 601 39,000  Level FlightAware Transoceanic
Thu 09:14:00 AM 39.6045 -165.0379 83° East 522 601 39,000  Level FlightAware Transoceanic
Thu 09:15:00 AM 39.6230 -164.8524 83° East 522 601 39,000  Level FlightAware Transoceanic
Thu 09:16:00 AM 39.6413 -164.6669 83° East 522 601 39,000  Level FlightAware Transoceanic
Thu 09:17:00 AM 39.6592 -164.4812 83° East 522 601 39,000  Level FlightAware Transoceanic
Thu 09:18:00 AM 39.6768 -164.2954 83° East 522 601 39,000  Level FlightAware Transoceanic
Thu 09:19:00 AM 39.6941 -164.1096 83° East 522 601 39,000  Level FlightAware Transoceanic
Thu 09:20:00 AM 39.7112 -163.9236 83° East 522 601 39,000  Level FlightAware Transoceanic
Thu 09:20:59 AM 39.7333 -163.7500 84° East 515 593 39,000  Level Oakland Oceanic (ODAPS)
Thu 09:21:00 AM 39.7279 -163.7376 83° East 522 601 39,000  Level FlightAware Transoceanic
Thu 09:22:00 AM 39.7444 -163.5515 84° East 522 601 39,000  Level FlightAware Transoceanic
Thu 09:23:00 AM 39.7605 -163.3652 84° East 522 601 39,000  Level FlightAware Transoceanic
Thu 09:24:00 AM 39.7764 -163.1789 84° East 522 601 39,000  Level FlightAware Transoceanic
Thu 09:25:00 AM 39.7919 -162.9925 84° East 522 601 39,000  Level FlightAware Transoceanic
Thu 09:26:00 AM 39.8072 -162.8061 84° East 522 601 39,000  Level FlightAware Transoceanic
Thu 09:27:00 AM 39.8260 -162.6281 84° East 515 593 39,000  Level FlightAware Transoceanic
Thu 09:28:00 AM 39.8404 -162.4409 84° East 515 593 39,000  Level FlightAware Transoceanic
Thu 09:29:00 AM 39.8545 -162.2536 84° East 515 593 39,000  Level FlightAware Transoceanic
Thu 09:30:00 AM 39.8683 -162.0661 85° East 515 593 39,000  Level FlightAware Transoceanic
Thu 09:31:00 AM 39.8818 -161.8786 85° East 515 593 39,000  Level FlightAware Transoceanic
Thu 09:32:00 AM 39.8950 -161.6911 85° East 515 593 39,000  Level FlightAware Transoceanic
Thu 09:33:00 AM 39.9078 -161.5034 85° East 515 593 39,000  Level FlightAware Transoceanic
Thu 09:34:00 AM 39.9204 -161.3157 85° East 515 593 39,000  Level FlightAware Transoceanic
Thu 09:34:51 AM 39.9167 -161.2333 85° East 508 585 39,000  Level Oakland Oceanic (ODAPS)
Thu 09:35:00 AM 39.9327 -161.1280 85° East 515 593 39,000  Level FlightAware Transoceanic
Thu 09:36:00 AM 39.9447 -160.9401 85° East 515 593 39,000  Level FlightAware Transoceanic
Thu 09:37:00 AM 39.9563 -160.7522 85° East 515 593 39,000  Level FlightAware Transoceanic
Thu 09:38:00 AM 39.9677 -160.5643 86° East 515 593 39,000  Level FlightAware Transoceanic
Thu 09:39:00 AM 39.9788 -160.3762 86° East 515 593 39,000  Level FlightAware Transoceanic
Thu 09:40:00 AM 39.9895 -160.1882 86° East 515 593 39,000  Level FlightAware Transoceanic
Thu 09:41:00 AM 40.0000 -160.0000 72° East 508 585 39,000 612 Level FlightAware Transoceanic
Thu 09:41:38 AM 40.0000 -160.0000 72° East 511 588 40,000  Climbing Oakland Oceanic (ODAPS)
Thu 09:42:00 AM 40.0431 -159.8270 72° East 508 585 39,000 -732 Descending FlightAware Transoceanic
Thu 09:43:00 AM 40.0860 -159.6538 72° East 508 585 39,000  Level FlightAware Transoceanic
Thu 09:44:00 AM 40.1286 -159.4803 72° East 508 585 39,000  Level FlightAware Transoceanic
Thu 09:45:00 AM 40.1710 -159.3067 72° East 508 585 39,000  Level FlightAware Transoceanic
Thu 09:46:00 AM 40.2131 -159.1328 72° East 508 585 39,000  Level FlightAware Transoceanic
Thu 09:47:00 AM 40.2549 -158.9588 73° East 508 585 39,000 500 Level FlightAware Transoceanic
Thu 09:48:00 AM 40.3018 -158.7623 73° East 511 588 40,000 571 Climbing FlightAware Transoceanic
Thu 09:48:45 AM 40.3167 -158.7167 73° East 511 588 40,000  Level Oakland Oceanic (ODAPS)
Thu 09:49:00 AM 40.3438 -158.5845 73° East 511 588 40,000  Level FlightAware Transoceanic
Thu 09:50:00 AM 40.3856 -158.4066 73° East 511 588 40,000  Level FlightAware Transoceanic
Thu 09:51:00 AM 40.4271 -158.2285 73° East 511 588 40,000  Level FlightAware Transoceanic
Thu 09:52:00 AM 40.4683 -158.0501 73° East 511 588 40,000  Level FlightAware Transoceanic
Thu 09:53:00 AM 40.5092 -157.8715 73° East 511 588 40,000  Level FlightAware Transoceanic
Thu 09:54:00 AM 40.5499 -157.6927 73° East 511 588 40,000  Level FlightAware Transoceanic
Thu 09:55:00 AM 40.5677 -157.6297 73° East 511 588 40,000  Level FlightAware Transoceanic
Thu 09:56:00 AM 40.6085 -157.4478 74° East 511 588 40,000  Level FlightAware Transoceanic
Thu 09:57:00 AM 40.6491 -157.2656 74° East 511 588 40,000  Level FlightAware Transoceanic
Thu 09:58:00 AM 40.6893 -157.0832 74° East 511 588 40,000  Level FlightAware Transoceanic
Thu 09:59:00 AM 40.7293 -156.9006 74° East 511 588 40,000  Level FlightAware Transoceanic
Thu 10:00:00 AM 40.7690 -156.7178 74° East 511 588 40,000  Level FlightAware Transoceanic
Thu 10:01:00 AM 40.8084 -156.5347 74° East 511 588 40,000  Level FlightAware Transoceanic
Thu 10:02:00 AM 40.8475 -156.3515 74° East 511 588 40,000  Level FlightAware Transoceanic
Thu 10:02:37 AM 40.8833 -156.2000 74° East 510 587 40,000  Level Oakland Oceanic (ODAPS)
Thu 10:03:00 AM 40.8863 -156.1680 74° East 511 588 40,000  Level FlightAware Transoceanic
Thu 10:04:00 AM 40.9249 -155.9843 75° East 511 588 40,000  Level FlightAware Transoceanic
Thu 10:05:00 AM 40.9631 -155.8004 75° East 511 588 40,000  Level FlightAware Transoceanic
Thu 10:06:00 AM 41.0011 -155.6163 75° East 511 588 40,000  Level FlightAware Transoceanic
Thu 10:07:00 AM 41.0387 -155.4319 75° East 511 588 40,000  Level FlightAware Transoceanic
Thu 10:08:00 AM 41.0761 -155.2474 75° East 511 588 40,000  Level FlightAware Transoceanic
Thu 10:09:00 AM 41.1403 -154.9414 75° East 510 587 40,000  Level FlightAware Transoceanic
Thu 10:10:00 AM 41.1758 -154.7608 75° East 510 587 40,000  Level FlightAware Transoceanic
Thu 10:11:00 AM 41.2111 -154.5800 76° East 510 587 40,000  Level FlightAware Transoceanic
Thu 10:12:00 AM 41.2462 -154.3990 76° East 510 587 40,000  Level FlightAware Transoceanic
Thu 10:13:00 AM 41.2809 -154.2178 76° East 510 587 40,000  Level FlightAware Transoceanic
Thu 10:14:00 AM 41.3153 -154.0364 76° East 510 587 40,000  Level FlightAware Transoceanic
Thu 10:15:00 AM 41.3495 -153.8548 76° East 510 587 40,000  Level FlightAware Transoceanic
Thu 10:16:00 AM 41.3834 -153.6731 76° East 510 587 40,000  Level FlightAware Transoceanic
Thu 10:16:29 AM 41.3833 -153.6500 76° East 512 589 40,000  Level Oakland Oceanic (ODAPS)
Thu 10:17:00 AM 41.4170 -153.4911 76° East 510 587 40,000  Level FlightAware Transoceanic
Thu 10:18:00 AM 41.4503 -153.3090 76° East 510 587 40,000  Level FlightAware Transoceanic
Thu 10:19:00 AM 41.4833 -153.1267 76° East 510 587 40,000  Level FlightAware Transoceanic
Thu 10:20:00 AM 41.5160 -152.9442 77° East 510 587 40,000  Level FlightAware Transoceanic
Thu 10:21:00 AM 41.5485 -152.7615 77° East 510 587 40,000  Level FlightAware Transoceanic
Thu 10:22:00 AM 41.5804 -152.5624 77° East 512 589 40,000  Level FlightAware Transoceanic
Thu 10:23:00 AM 41.6123 -152.3805 77° East 512 589 40,000  Level FlightAware Transoceanic
Thu 10:24:00 AM 41.6438 -152.1984 77° East 512 589 40,000  Level FlightAware Transoceanic
Thu 10:25:00 AM 41.6751 -152.0162 77° East 512 589 40,000  Level FlightAware Transoceanic
Thu 10:26:00 AM 41.7061 -151.8338 77° East 512 589 40,000  Level FlightAware Transoceanic
Thu 10:27:00 AM 41.7368 -151.6511 77° East 512 589 40,000  Level FlightAware Transoceanic
Thu 10:28:00 AM 41.7672 -151.4684 77° East 512 589 40,000  Level FlightAware Transoceanic
Thu 10:29:00 AM 41.7973 -151.2854 78° East 512 589 40,000  Level FlightAware Transoceanic
Thu 10:30:00 AM 41.8272 -151.1023 78° East 512 589 40,000  Level FlightAware Transoceanic
Thu 10:30:37 AM 41.8333 -151.1000 78° East 514 592 40,000  Level Oakland Oceanic (ODAPS)
Thu 10:31:00 AM 41.8567 -150.9190 78° East 512 589 40,000  Level FlightAware Transoceanic
Thu 10:32:00 AM 41.8859 -150.7355 78° East 512 589 40,000  Level FlightAware Transoceanic
Thu 10:33:00 AM 41.9149 -150.5519 78° East 512 589 40,000  Level FlightAware Transoceanic
Thu 10:34:00 AM 41.9436 -150.3681 78° East 512 589 40,000  Level FlightAware Transoceanic
Thu 10:35:00 AM 41.9719 -150.1841 78° East 512 589 40,000  Level FlightAware Transoceanic
Thu 10:36:00 AM 42.0000 -150.0000 87° East 512 589 40,000  Level FlightAware Transoceanic
Thu 10:36:21 AM 42.0000 -150.0000 87° East 507 583 40,000  Level Oakland Oceanic (ODAPS)
Thu 10:37:00 AM 42.0080 -149.8117 87° East 514 592 40,000  Level FlightAware Transoceanic
Thu 10:38:00 AM 42.0158 -149.6234 87° East 514 592 40,000  Level FlightAware Transoceanic
Thu 10:39:00 AM 42.0232 -149.4350 87° East 514 592 40,000  Level FlightAware Transoceanic
Thu 10:40:00 AM 42.0303 -149.2466 87° East 514 592 40,000  Level FlightAware Transoceanic
Thu 10:41:00 AM 42.0371 -149.0582 87° East 514 592 40,000  Level FlightAware Transoceanic
Thu 10:42:00 AM 42.0436 -148.8697 87° East 507 583 40,000  Level FlightAware Transoceanic
Thu 10:43:00 AM 42.0498 -148.6812 88° East 507 583 40,000  Level FlightAware Transoceanic
Thu 10:44:00 AM 42.0557 -148.4926 88° East 507 583 40,000  Level FlightAware Transoceanic
Thu 10:44:13 AM 42.0500 -148.5333 88° East 509 586 40,000  Level Oakland Oceanic (ODAPS)
Thu 10:45:00 AM 42.0612 -148.3040 88° East 507 583 40,000  Level FlightAware Transoceanic
Thu 10:46:00 AM 42.0665 -148.1154 88° East 507 583 40,000  Level FlightAware Transoceanic
Thu 10:47:00 AM 42.0714 -147.9267 88° East 507 583 40,000  Level FlightAware Transoceanic
Thu 10:48:00 AM 42.0761 -147.7380 88° East 507 583 40,000  Level FlightAware Transoceanic
Thu 10:49:00 AM 42.0804 -147.5493 88° East 507 583 40,000  Level FlightAware Transoceanic
Thu 10:50:00 AM 42.0799 -147.3960 88° East 509 586 40,000  Level FlightAware Transoceanic
Thu 10:51:00 AM 42.0838 -147.2063 88° East 509 586 40,000  Level FlightAware Transoceanic
Thu 10:52:00 AM 42.0873 -147.0166 89° East 509 586 40,000  Level FlightAware Transoceanic
Thu 10:53:00 AM 42.0906 -146.8270 89° East 509 586 40,000  Level FlightAware Transoceanic
Thu 10:54:00 AM 42.0936 -146.6372 89° East 509 586 40,000  Level FlightAware Transoceanic
Thu 10:55:00 AM 42.0962 -146.4475 89° East 509 586 40,000  Level FlightAware Transoceanic
Thu 10:56:00 AM 42.0985 -146.2578 89° East 509 586 40,000  Level FlightAware Transoceanic
Thu 10:57:00 AM 42.1006 -146.0680 89° East 509 586 40,000  Level FlightAware Transoceanic
Thu 10:58:00 AM 42.1022 -145.8782 89° East 509 586 40,000  Level FlightAware Transoceanic
Thu 10:58:05 AM 42.1000 -145.9167 89° East 508 585 40,000  Level Oakland Oceanic (ODAPS)
Thu 10:59:00 AM 42.1036 -145.6884 89° East 509 586 40,000  Level FlightAware Transoceanic
Thu 11:00:00 AM 42.1047 -145.4987 90° East 509 586 40,000  Level FlightAware Transoceanic
Thu 11:01:00 AM 42.1055 -145.3089 90° East 509 586 40,000  Level FlightAware Transoceanic
Thu 11:02:00 AM 42.1059 -145.1191 90° East 509 586 40,000  Level FlightAware Transoceanic
Thu 11:03:00 AM 42.1061 -144.9293 90° East 509 586 40,000  Level FlightAware Transoceanic
Thu 11:04:00 AM 42.1044 -144.7705 90° East 508 585 40,000  Level FlightAware Transoceanic
Thu 11:05:00 AM 42.1040 -144.5795 90° East 508 585 40,000  Level FlightAware Transoceanic
Thu 11:06:00 AM 42.1033 -144.3884 90° East 508 585 40,000  Level FlightAware Transoceanic
Thu 11:07:00 AM 42.1023 -144.1974 90° East 508 585 40,000  Level FlightAware Transoceanic
Thu 11:08:00 AM 42.1010 -144.0064 91° East 508 585 40,000  Level FlightAware Transoceanic
Thu 11:09:00 AM 42.0993 -143.8154 91° East 508 585 40,000  Level FlightAware Transoceanic
Thu 11:10:00 AM 42.0974 -143.6244 91° East 508 585 40,000  Level FlightAware Transoceanic
Thu 11:11:00 AM 42.0951 -143.4334 91° East 508 585 40,000  Level FlightAware Transoceanic
Thu 11:11:58 AM 42.1000 -143.3000 91° East 509 586 40,000  Level Oakland Oceanic (ODAPS)
Thu 11:12:00 AM 42.0925 -143.2424 91° East 508 585 40,000  Level FlightAware Transoceanic
Thu 11:13:00 AM 42.0896 -143.0515 91° East 508 585 40,000  Level FlightAware Transoceanic
Thu 11:14:00 AM 42.0863 -142.8605 91° East 508 585 40,000  Level FlightAware Transoceanic
Thu 11:15:00 AM 42.0828 -142.6696 91° East 508 585 40,000  Level FlightAware Transoceanic
Thu 11:16:00 AM 42.0789 -142.4787 92° East 508 585 40,000  Level FlightAware Transoceanic
Thu 11:17:00 AM 42.0748 -142.2879 92° East 508 585 40,000  Level FlightAware Transoceanic
Thu 11:18:00 AM 42.0755 -142.1342 92° East 509 586 40,000  Level FlightAware Transoceanic
Thu 11:19:00 AM 42.0703 -141.9400 92° East 509 586 40,000  Level FlightAware Transoceanic
Thu 11:20:00 AM 42.0647 -141.7458 92° East 509 586 40,000  Level FlightAware Transoceanic
Thu 11:21:00 AM 42.0588 -141.5516 92° East 509 586 40,000  Level FlightAware Transoceanic
Thu 11:22:00 AM 42.0526 -141.3575 93° East 509 586 40,000  Level FlightAware Transoceanic
Thu 11:23:00 AM 42.0461 -141.1635 93° East 509 586 40,000  Level FlightAware Transoceanic
Thu 11:24:00 AM 42.0392 -140.9694 93° East 509 586 40,000  Level FlightAware Transoceanic
Thu 11:25:00 AM 42.0320 -140.7755 93° East 509 586 40,000  Level FlightAware Transoceanic
Thu 11:25:48 AM 42.0333 -140.6667 94° East 509 586 40,000  Level Oakland Oceanic (ODAPS)
Thu 11:26:00 AM 42.0245 -140.5815 93° East 509 586 40,000  Level FlightAware Transoceanic
Thu 11:27:00 AM 42.0167 -140.3876 93° East 509 586 40,000  Level FlightAware Transoceanic
Thu 11:28:00 AM 42.0085 -140.1938 93° East 509 586 40,000  Level FlightAware Transoceanic
Thu 11:29:00 AM 42.0000 -140.0000 94° East 509 586 40,000  Level FlightAware Transoceanic
Thu 11:29:31 AM 42.0000 -140.0000 94° East 514 592 40,000  Level Oakland Oceanic (ODAPS)
Thu 11:30:00 AM 41.9894 -139.8124 94° East 509 586 40,000  Level FlightAware Transoceanic
Thu 11:31:00 AM 41.9786 -139.6248 95° East 509 586 40,000  Level FlightAware Transoceanic
Thu 11:32:00 AM 41.9674 -139.4373 95° East 509 586 40,000  Level FlightAware Transoceanic
Thu 11:33:00 AM 41.9559 -139.2499 95° East 509 586 40,000  Level FlightAware Transoceanic
Thu 11:34:00 AM 41.9441 -139.0625 95° East 509 586 40,000  Level FlightAware Transoceanic
Thu 11:35:00 AM 41.9307 -138.8540 95° East 514 592 40,000  Level FlightAware Transoceanic
Thu 11:36:00 AM 41.9180 -138.6633 95° East 514 592 40,000  Level FlightAware Transoceanic
Thu 11:37:00 AM 41.9050 -138.4726 95° East 514 592 40,000  Level FlightAware Transoceanic
Thu 11:38:00 AM 41.8918 -138.2820 95° East 514 592 40,000  Level FlightAware Transoceanic
Thu 11:39:00 AM 41.8781 -138.0915 96° East 514 592 40,000  Level FlightAware Transoceanic
Thu 11:39:40 AM 41.8667 -138.0333 96° East 513 590 40,000  Level Oakland Oceanic (ODAPS)
Thu 11:40:00 AM 41.8642 -137.9011 96° East 514 592 40,000  Level FlightAware Transoceanic
Thu 11:41:00 AM 41.8500 -137.7108 96° East 514 592 40,000  Level FlightAware Transoceanic
Thu 11:42:00 AM 41.8354 -137.5205 96° East 514 592 40,000  Level FlightAware Transoceanic
Thu 11:43:00 AM 41.8206 -137.3303 96° East 514 592 40,000  Level FlightAware Transoceanic
Thu 11:44:00 AM 41.8054 -137.1402 96° East 514 592 40,000  Level FlightAware Transoceanic
Thu 11:45:00 AM 41.7795 -136.9004 96° East 513 590 40,000  Level FlightAware Transoceanic
Thu 11:46:00 AM 41.7639 -136.7119 96° East 513 590 40,000  Level FlightAware Transoceanic
Thu 11:47:00 AM 41.7480 -136.5235 97° East 513 590 40,000  Level FlightAware Transoceanic
Thu 11:48:00 AM 41.7318 -136.3352 97° East 513 590 40,000  Level FlightAware Transoceanic
Thu 11:49:00 AM 41.7153 -136.1470 97° East 513 590 40,000  Level FlightAware Transoceanic
Thu 11:50:00 AM 41.6984 -135.9588 97° East 513 590 40,000  Level FlightAware Transoceanic
Thu 11:51:00 AM 41.6813 -135.7708 97° East 513 590 40,000  Level FlightAware Transoceanic
Thu 11:52:00 AM 41.6639 -135.5829 97° East 513 590 40,000  Level FlightAware Transoceanic
Thu 11:53:00 AM 41.6461 -135.3951 97° East 513 590 40,000  Level FlightAware Transoceanic
Thu 11:53:34 AM 41.6500 -135.4000 97° East 514 592 40,000  Level Oakland Oceanic (ODAPS)
Thu 11:54:00 AM 41.6281 -135.2073 97° East 513 590 40,000  Level FlightAware Transoceanic
Thu 11:55:00 AM 41.6097 -135.0197 98° East 513 590 40,000  Level FlightAware Transoceanic
Thu 11:56:00 AM 41.5910 -134.8322 98° East 513 590 40,000  Level FlightAware Transoceanic
Thu 11:57:00 AM 41.5720 -134.6448 98° East 513 590 40,000  Level FlightAware Transoceanic
Thu 11:58:00 AM 41.5528 -134.4575 98° East 513 590 40,000  Level FlightAware Transoceanic
Thu 11:59:00 AM 41.5363 -134.2742 98° East 514 592 40,000  Level FlightAware Transoceanic
Thu 12:00:00 PM 41.5163 -134.0870 98° East 514 592 40,000  Level FlightAware Transoceanic
Thu 12:01:00 PM 41.4960 -133.8999 98° East 514 592 40,000  Level FlightAware Transoceanic
Thu 12:02:00 PM 41.4754 -133.7128 98° East 514 592 40,000  Level FlightAware Transoceanic
Thu 12:03:00 PM 41.4544 -133.5260 99° East 514 592 40,000  Level FlightAware Transoceanic
Thu 12:04:00 PM 41.4332 -133.3392 99° East 514 592 40,000  Level FlightAware Transoceanic
Thu 12:05:00 PM 41.4117 -133.1526 99° East 514 592 40,000  Level FlightAware Transoceanic
Thu 12:06:00 PM 41.3899 -132.9661 99° East 514 592 40,000  Level FlightAware Transoceanic
Thu 12:07:00 PM 41.3677 -132.7797 99° East 514 592 40,000  Level FlightAware Transoceanic
Thu 12:07:26 PM 41.3667 -132.7833 99° East 519 597 40,000  Level Oakland Oceanic (ODAPS)
Thu 12:08:00 PM 41.3453 -132.5934 99° East 514 592 40,000  Level FlightAware Transoceanic
Thu 12:09:00 PM 41.3226 -132.4073 99° East 514 592 40,000  Level FlightAware Transoceanic
Thu 12:10:00 PM 41.2995 -132.2213 99° East 514 592 40,000  Level FlightAware Transoceanic
Thu 12:11:00 PM 41.2762 -132.0354 100° East 514 592 40,000  Level FlightAware Transoceanic
Thu 12:12:00 PM 41.2526 -131.8497 100° East 514 592 40,000  Level FlightAware Transoceanic
Thu 12:13:00 PM 41.2281 -131.6663 100° East 519 597 40,000  Level FlightAware Transoceanic
Thu 12:14:00 PM 41.2039 -131.4806 100° East 519 597 40,000  Level FlightAware Transoceanic
Thu 12:15:00 PM 41.1795 -131.2950 100° East 519 597 40,000  Level FlightAware Transoceanic
Thu 12:16:00 PM 41.1547 -131.1096 100° East 519 597 40,000  Level FlightAware Transoceanic
Thu 12:17:00 PM 41.1297 -130.9243 100° East 519 597 40,000  Level FlightAware Transoceanic
Thu 12:18:00 PM 41.1043 -130.7391 100° East 519 597 40,000  Level FlightAware Transoceanic
Thu 12:19:00 PM 41.0787 -130.5541 100° East 519 597 40,000  Level FlightAware Transoceanic
Thu 12:20:00 PM 41.0527 -130.3693 101° East 519 597 40,000  Level FlightAware Transoceanic
Thu 12:21:00 PM 41.0265 -130.1846 101° East 519 597 40,000  Level FlightAware Transoceanic
Thu 12:21:16 PM 41.0333 -130.2167 101° East 507 583 40,000  Level Oakland Oceanic (ODAPS)
Thu 12:22:00 PM 41.0000 -130.0000 109° East 519 597 40,000  Level FlightAware Transoceanic
Thu 12:22:29 PM 41.0000 -130.0000 109° East 514 592 40,000  Level Oakland Oceanic (ODAPS)
Thu 12:23:00 PM 40.9522 -129.8214 110° East 519 597 40,000  Level FlightAware Transoceanic
Thu 12:24:00 PM 40.9041 -129.6431 110° East 519 597 40,000  Level FlightAware Transoceanic
Thu 12:25:00 PM 40.8557 -129.4651 110° East 519 597 40,000  Level FlightAware Transoceanic
Thu 12:26:00 PM 40.8070 -129.2873 110° East 519 597 40,000  Level FlightAware Transoceanic
Thu 12:27:00 PM 40.7581 -129.1098 110° East 507 583 40,000  Level FlightAware Transoceanic
Thu 12:28:00 PM 40.7089 -128.9325 110° East 514 592 40,000  Level FlightAware Transoceanic
Thu 12:29:00 PM 40.6594 -128.7555 110° East 514 592 40,000  Level FlightAware Transoceanic
Thu 12:30:00 PM 40.6097 -128.5787 110° East 514 592 40,000  Level FlightAware Transoceanic
Thu 12:31:00 PM 40.5597 -128.4023 111° Southeast 514 592 40,000  Level FlightAware Transoceanic
Thu 12:32:00 PM 40.5094 -128.2260 111° Southeast 514 592 40,000  Level FlightAware Transoceanic
Thu 12:33:00 PM 40.4588 -128.0501 111° Southeast 514 592 40,000  Level FlightAware Transoceanic
Thu 12:34:00 PM 40.4080 -127.8744 111° Southeast 514 592 40,000  Level FlightAware Transoceanic
Thu 12:35:00 PM 40.3569 -127.6990 111° Southeast 514 592 40,000  Level FlightAware Transoceanic
Thu 12:35:04 PM 40.3667 -127.7333 111° Southeast 527 606 40,000  Level Oakland Oceanic (ODAPS)
Thu 12:36:00 PM 40.3056 -127.5238 111° Southeast 514 592 40,000 -65 Level FlightAware Transoceanic
Thu 12:36:36 PM 40.2936 -127.4828 110° East 525 604 39,900  Descending Oakland Center
Thu 12:37:00 PM 40.2540 -127.3490 111° Southeast 514 592 40,000  Climbing FlightAware Transoceanic
Thu 12:37:37 PM 40.2408 -127.3031 111° Southeast 528 608 39,900  Descending Oakland Center
Thu 12:38:00 PM 40.2021 -127.1743 111° Southeast 514 592 40,000  Climbing FlightAware Transoceanic
Thu 12:38:38 PM 40.1861 -127.1242 112° Southeast 529 609 39,900  Descending Oakland Center
Thu 12:39:00 PM 40.1500 -127.0000 110° East 514 592 40,000 98 Climbing FlightAware Transoceanic
Thu 12:39:39 PM 40.1253 -126.9511 115° Southeast 529 609 40,000  Level Oakland Center
Thu 12:40:00 PM 40.1004 -126.8195 110° East 514 592 40,000  Level FlightAware Transoceanic
Thu 12:40:41 PM 40.0169 -126.7636 127° Southeast 538 619 40,000  Level Oakland Center
Thu 12:41:00 PM 40.0504 -126.6394 110° East 527 606 40,000  Level FlightAware Transoceanic
Thu 12:41:42 PM 39.9261 -126.6072 127° Southeast 541 623 40,000  Level Oakland Center
Thu 12:42:43 PM 39.8356 -126.4514 127° Southeast 541 623 40,000 -49 Level Oakland Center
Thu 12:43:44 PM 39.7439 -126.2967 128° Southeast 542 624 39,900 -49 Descending Oakland Center
Thu 12:44:46 PM 39.6536 -126.1406 127° Southeast 543 625 39,900  Level Oakland Center
Thu 12:45:47 PM 39.5606 -125.9842 128° Southeast 546 628 39,900  Level Oakland Center
Thu 12:46:48 PM 39.4692 -125.8300 127° Southeast 545 627 39,900 98 Level Oakland Center
Thu 12:47:49 PM 39.3789 -125.6783 128° Southeast 545 627 40,100 439 Climbing Oakland Center
Thu 12:48:51 PM 39.2661 -125.4908 128° Southeast 550 633 40,800 390 Climbing Oakland Center
Thu 12:49:52 PM 39.1717 -125.3375 128° Southeast 548 631 40,900 49 Climbing Oakland Center
Thu 12:50:53 PM 39.0797 -125.1842 128° Southeast 540 621 40,900 49 Level Oakland Center
Thu 12:51:54 PM 38.9897 -125.0356 128° Southeast 533 613 41,000  Climbing Oakland Center
Thu 12:52:55 PM 38.8975 -124.8861 128° Southeast 534 615 40,900  Descending Oakland Center
Thu 12:53:57 PM 38.8064 -124.7364 128° Southeast 534 615 41,000 49 Climbing Oakland Center
Thu 12:54:58 PM 38.7136 -124.5861 128° Southeast 538 619 41,000  Level Oakland Center
Thu 12:55:59 PM 38.6192 -124.4375 129° Southeast 538 619 41,000 -49 Level Oakland Center
Thu 12:57:00 PM 38.5247 -124.2889 129° Southeast 540 621 40,900  Descending Oakland Center
Thu 12:58:02 PM 38.4319 -124.1389 128° Southeast 539 620 41,000  Climbing Oakland Center
Thu 12:59:03 PM 38.3200 -123.9611 129° Southeast 538 619 40,900  Descending Oakland Center
Thu 01:00:04 PM 38.2272 -123.8128 128° Southeast 538 619 41,000  Climbing Oakland Center
Thu 01:01:05 PM 38.1342 -123.6667 129° Southeast 535 616 40,900  Descending Oakland Center
Thu 01:02:06 PM 38.0383 -123.5197 130° Southeast 540 621 41,000 14 Climbing Oakland Center
Thu 01:08:00 PM 37.5461 -122.7570 130° Southeast 544 626 41,000  Level FlightAware ADS-B
Thu 01:09:15 PM 37.3508 -122.4600 130° Southeast 544 626 41,000  Level FlightAware ADS-B
Thu 01:09:58 PM 37.2790 -122.3518 130° Southeast 545 627 41,000  Level FlightAware ADS-B
Thu 01:10:37 PM 37.2150 -122.2554 130° Southeast 544 626 41,000  Level FlightAware ADS-B
Thu 01:11:16 PM 37.1520 -122.1609 130° Southeast 542 624 41,000  Level FlightAware ADS-B
Thu 01:11:23 PM 37.1418 -122.1460 131° Southeast 542 624 41,000  Level FlightAware ADS-B
Thu 01:12:02 PM 37.0797 -122.0530 130° Southeast 538 619 41,000  Level FlightAware ADS-B
Thu 01:12:43 PM 37.0143 -121.9550 130° Southeast 538 619 41,000  Level FlightAware ADS-B
Thu 01:13:25 PM 36.9459 -121.8530 130° Southeast 539 620 41,000  Level FlightAware ADS-B
Thu 01:14:04 PM 36.8839 -121.7620 130° Southeast 543 625 41,000  Level FlightAware ADS-B
Thu 01:14:38 PM 36.8280 -121.6790 130° Southeast 544 626 41,000  Level FlightAware ADS-B
Thu 01:16:14 PM 36.6709 -121.4480 130° Southeast 548 631 41,000  Level FlightAware ADS-B
Thu 01:17:13 PM 36.5739 -121.3060 130° Southeast 550 633 41,000  Level FlightAware ADS-B
Thu 01:18:15 PM 36.4858 -121.1861 130° Southeast 549 632 41,000 -48 Level Los Angeles Center
Thu 01:19:17 PM 36.3881 -121.0381 129° Southeast 550 633 40,900 -48 Descending Los Angeles Center
Thu 01:20:19 PM 36.2892 -120.8939 130° Southeast 548 631 40,900  Level Los Angeles Center
Thu 01:21:21 PM 36.1694 -120.7211 131° Southeast 550 633 40,900  Level Los Angeles Center
Thu 01:22:23 PM 36.0706 -120.5794 131° Southeast 546 628 40,900  Level Los Angeles Center
Thu 01:23:33 PM 35.9519 -120.4108 131° Southeast 547 629 40,900 32 Level Oakland Center
Thu 01:25:30 PM 35.7722 -120.1561 131° Southeast 540 621 41,000  Climbing Los Angeles Center
Thu 01:26:32 PM 35.6714 -120.0161 132° Southeast 540 621 40,900 -726 Descending Los Angeles Center
Thu 01:27:34 PM 35.5578 -119.8953 139° Southeast 534 615 39,500 -2,226 Descending Los Angeles Center
Thu 01:28:36 PM 35.4064 -119.7672 145° Southeast 544 626 36,300 -2,952 Descending Los Angeles Center
Thu 01:29:38 PM 35.2819 -119.6594 145° Southeast 545 627 33,400 -3,000 Descending Los Angeles Center
Thu 01:30:40 PM 35.1567 -119.5511 145° Southeast 546 628 30,100 -3,072 Descending Los Angeles Center
Thu 01:31:43 PM 35.0286 -119.4444 146° Southeast 552 635 27,000 -2,640 Descending Los Angeles Center
Thu 01:32:45 PM 34.9050 -119.3367 144° Southeast 549 632 24,600 -2,323 Descending Los Angeles Center
Thu 01:33:47 PM 34.7825 -119.2356 146° Southeast 535 616 22,200 -2,226 Descending Los Angeles Center
Thu 01:34:49 PM 34.6697 -119.1386 145° Southeast 504 580 20,000 -2,177 Descending Los Angeles Center
Thu 01:35:51 PM 34.5533 -119.0456 147° Southeast 481 554 17,700 -2,371 Descending Los Angeles Center
Thu 01:36:53 PM 34.4289 -118.9403 145° Southeast 453 521 15,100 -2,323 Descending Los Angeles Center
Thu 01:37:55 PM 34.3231 -118.8683 151° Southeast 438 504 12,900 -1,488 Descending Los Angeles Center
Thu 01:38:58 PM 34.2142 -118.8308 164° South 407 468 12,000 -672 Descending Los Angeles Center
Thu 01:40:00 PM 34.1200 -118.7944 162° South 353 406 11,500 -823 Descending Los Angeles Center
Thu 01:41:02 PM 34.0367 -118.7289 147° Southeast 331 381 10,300 -871 Descending Los Angeles Center
Thu 01:42:04 PM 34.0261 -118.6303 97° East 297 342 9,700 -919 Descending Los Angeles Center
Thu 01:43:06 PM 34.0172 -118.5294 96° East 283 326 8,400 -871 Descending Los Angeles Center
Thu 01:44:08 PM 34.0119 -118.4442 94° East 262 302 7,900 -1,065 Descending Los Angeles Center
Thu 01:45:10 PM 34.0181 -118.3672 85° East 239 275 6,200 -2,032 Descending Los Angeles Center
Thu 01:46:12 PM 34.0233 -118.2933 85° East 225 259 3,700 -1,742 Descending Los Angeles Center
Thu 01:47:14 PM 34.0272 -118.2239 86° East 215 247 2,600 -532 Descending Los Angeles Center
Thu 01:48:16 PM 34.0186 -118.1681 101° East 201 231 2,600  Level Los Angeles Center
Thu 01:49:19 PM 33.9794 -118.2150 225° Southwest 192 221 2,600 -144 Level Los Angeles Center
Thu 01:50:21 PM 33.9644 -118.2736 253° West 189 217 2,300 -629 Descending Los Angeles Center
Thu 01:51:23 PM 33.9603 -118.3297 265° West 179 206 1,300 -871 Descending Los Angeles Center
Thu 01:52:25 PM 33.9556 -118.3806 264° West 165 190 500 -581 Descending Los Angeles Center
Thu 01:53:27 PM 33.9500 -118.4314 263° West 155 178 100 -387 Descending Los Angeles Center

Login

Don't have an account? Register now (free) for customized features, flight alerts, and more!